createdAt,value
2022-12-19T00:00:14.749Z,632.74
2022-12-19T00:01:26.856Z,620.85
2022-12-19T00:02:32.733Z,615.28
2022-12-19T00:03:39.463Z,606.95
2022-12-19T00:04:42.853Z,600.92
2022-12-19T00:05:48.876Z,605.82
2022-12-19T00:06:52.165Z,599.08
2022-12-19T00:07:59.034Z,598.04
2022-12-19T00:09:06.853Z,600.06
2022-12-19T00:10:13.534Z,607.87
2022-12-19T00:11:18.952Z,621.99
2022-12-19T00:12:24.804Z,615.30
2022-12-19T00:13:35.288Z,592.33
2022-12-19T00:14:50.735Z,598.91
2022-12-19T00:15:54.545Z,612.66
2022-12-19T00:17:00.431Z,611.98
2022-12-19T00:18:05.677Z,620.95
2022-12-19T00:19:15.784Z,633.73
2022-12-19T00:20:19.471Z,615.69
2022-12-19T00:21:28.414Z,604.74
2022-12-19T00:22:31.757Z,632.55
2022-12-19T00:23:38.839Z,630.57
2022-12-19T00:24:42.915Z,630.63
2022-12-19T00:25:48.847Z,622.78
2022-12-19T00:26:52.131Z,636.44
2022-12-19T00:27:58.639Z,630.56
2022-12-19T00:29:11.164Z,638.13
2022-12-19T00:30:24.115Z,646.56
2022-12-19T00:31:31.630Z,668.74
2022-12-19T00:32:37.764Z,654.13
2022-12-19T00:33:43.401Z,638.89
2022-12-19T00:34:51.000Z,652.40
2022-12-19T00:35:59.098Z,649.62
2022-12-19T00:37:05.011Z,664.10
2022-12-19T00:38:08.417Z,661.78
2022-12-19T00:39:14.698Z,664.59
2022-12-19T00:40:18.427Z,674.83
2022-12-19T00:41:28.398Z,672.03
2022-12-19T00:42:32.338Z,665.73
2022-12-19T00:43:38.532Z,674.75
2022-12-19T00:44:42.002Z,655.63
2022-12-19T00:45:50.666Z,670.19
2022-12-19T00:46:54.907Z,687.04
2022-12-19T00:48:00.801Z,659.93
2022-12-19T00:49:06.535Z,642.23
2022-12-19T00:50:13.801Z,645.79
2022-12-19T00:51:21.335Z,661.45
2022-12-19T00:52:28.092Z,653.57
2022-12-19T00:53:34.827Z,657.35
2022-12-19T00:54:42.096Z,654.54
2022-12-19T00:55:45.337Z,636.98
2022-12-19T00:56:51.351Z,628.90
2022-12-19T00:57:55.550Z,629.81
2022-12-19T00:59:05.884Z,624.74
2022-12-19T01:00:12.099Z,625.27
2022-12-19T01:01:24.652Z,622.48
2022-12-19T01:02:30.761Z,617.40
2022-12-19T01:03:35.239Z,622.34
2022-12-19T01:04:41.962Z,623.50
2022-12-19T01:05:51.027Z,621.74
2022-12-19T01:07:01.758Z,630.09
2022-12-19T01:08:09.208Z,637.51
2022-12-19T01:09:16.514Z,626.69
2022-12-19T01:10:19.966Z,617.84
2022-12-19T01:11:46.694Z,614.41
2022-12-19T01:12:49.973Z,598.96
2022-12-19T01:13:54.684Z,606.77
2022-12-19T01:15:04.899Z,618.65
2022-12-19T01:16:15.168Z,625.41
2022-12-19T01:17:21.157Z,601.91
2022-12-19T01:18:27.096Z,598.65
2022-12-19T01:19:30.566Z,595.37
2022-12-19T01:20:37.287Z,607.52
2022-12-19T01:21:41.033Z,595.21
2022-12-19T01:22:47.877Z,594.55
2022-12-19T01:23:51.187Z,604.72
2022-12-19T01:24:57.091Z,597.75
2022-12-19T01:26:01.357Z,598.58
2022-12-19T01:27:07.494Z,602.95
2022-12-19T01:28:18.261Z,604.09
2022-12-19T01:29:22.275Z,609.17
2022-12-19T01:30:29.256Z,609.95
2022-12-19T01:31:35.108Z,595.29
2022-12-19T01:32:44.706Z,612.71
2022-12-19T01:33:48.120Z,599.81
2022-12-19T01:34:56.404Z,605.05
2022-12-19T01:36:02.033Z,591.34
2022-12-19T01:37:08.877Z,603.74
2022-12-19T01:38:15.615Z,596.40
2022-12-19T01:39:21.525Z,601.70
2022-12-19T01:40:30.247Z,581.98
2022-12-19T01:41:33.869Z,584.09
2022-12-19T01:42:41.210Z,590.05
2022-12-19T01:44:02.075Z,596.34
2022-12-19T01:45:34.077Z,592.85
2022-12-19T01:46:47.649Z,603.86
2022-12-19T01:48:07.739Z,587.62
2022-12-19T01:49:25.278Z,594.10
2022-12-19T01:50:38.081Z,592.32
2022-12-19T01:51:54.375Z,599.55
2022-12-19T01:53:01.421Z,595.06
2022-12-19T01:54:15.535Z,615.04
2022-12-19T01:55:22.082Z,603.18
2022-12-19T01:56:37.429Z,610.06
2022-12-19T01:57:40.876Z,608.35
2022-12-19T01:58:49.000Z,620.32
2022-12-19T02:00:00.198Z,607.61
2022-12-19T02:01:06.666Z,631.59
2022-12-19T02:02:19.452Z,626.19
2022-12-19T02:03:32.709Z,606.64
2022-12-19T02:04:37.485Z,625.07
2022-12-19T02:05:44.617Z,617.61
2022-12-19T02:06:56.484Z,633.32
2022-12-19T02:08:05.985Z,642.31
2022-12-19T02:09:10.197Z,631.70
2022-12-19T02:10:17.025Z,632.10
2022-12-19T02:11:20.504Z,642.01
2022-12-19T02:12:33.246Z,640.35
2022-12-19T02:13:36.835Z,655.85
2022-12-19T02:14:44.623Z,640.26
2022-12-19T02:16:05.927Z,671.04
2022-12-19T02:17:27.951Z,651.93
2022-12-19T02:18:52.181Z,656.11
2022-12-19T02:20:48.445Z,663.96
2022-12-19T02:22:12.712Z,666.94
2022-12-19T02:24:10.984Z,677.07
2022-12-19T02:26:03.655Z,662.81
2022-12-19T02:28:01.083Z,638.48
2022-12-19T02:29:43.997Z,648.59
2022-12-19T02:31:17.499Z,672.12
2022-12-19T02:32:36.302Z,640.27
2022-12-19T02:33:49.557Z,638.35
2022-12-19T02:35:11.279Z,649.63
2022-12-19T02:36:28.580Z,637.73
2022-12-19T02:37:44.831Z,631.53
2022-12-19T02:39:02.400Z,637.95
2022-12-19T02:40:18.550Z,640.44
2022-12-19T02:41:43.519Z,630.98
2022-12-19T02:43:00.968Z,626.92
2022-12-19T02:44:08.865Z,617.80
2022-12-19T02:45:28.337Z,618.20
2022-12-19T02:46:37.869Z,608.52
2022-12-19T02:47:43.396Z,612.11
2022-12-19T02:48:51.635Z,592.53
2022-12-19T02:49:55.084Z,602.45
2022-12-19T02:51:01.421Z,612.10
2022-12-19T02:52:13.303Z,598.93
2022-12-19T02:53:23.805Z,608.07
2022-12-19T02:54:33.031Z,597.86
2022-12-19T02:55:51.746Z,589.04
2022-12-19T02:57:09.174Z,595.24
2022-12-19T02:58:46.684Z,614.28
2022-12-19T03:00:06.768Z,597.34
2022-12-19T03:01:36.635Z,602.74
2022-12-19T03:03:01.183Z,588.04
2022-12-19T03:04:24.343Z,597.78
2022-12-19T03:05:45.662Z,589.38
2022-12-19T03:07:02.101Z,617.39
2022-12-19T03:08:23.964Z,600.70
2022-12-19T03:09:43.952Z,594.79
2022-12-19T03:11:00.758Z,581.14
2022-12-19T03:12:18.362Z,573.40
2022-12-19T03:13:30.584Z,575.36
2022-12-19T03:14:40.293Z,576.46
2022-12-19T03:15:45.448Z,582.43
2022-12-19T03:16:54.396Z,584.81
2022-12-19T03:18:02.883Z,591.22
2022-12-19T03:19:16.535Z,588.54
2022-12-19T03:20:37.353Z,579.59
2022-12-19T03:21:47.783Z,584.30
2022-12-19T03:22:51.866Z,564.21
2022-12-19T03:24:01.408Z,590.80
2022-12-19T03:25:05.608Z,586.15
2022-12-19T03:26:20.757Z,598.85
2022-12-19T03:27:34.285Z,595.84
2022-12-19T03:28:50.981Z,593.41
2022-12-19T03:30:06.849Z,585.31
2022-12-19T03:31:15.852Z,611.48
2022-12-19T03:32:25.601Z,599.12
2022-12-19T03:33:35.074Z,594.05
2022-12-19T03:34:50.910Z,590.92
2022-12-19T03:36:04.610Z,612.36
2022-12-19T03:37:20.351Z,596.98
2022-12-19T03:38:24.476Z,600.79
2022-12-19T03:39:35.202Z,597.14
2022-12-19T03:40:46.465Z,594.63
2022-12-19T03:42:07.867Z,611.43
2022-12-19T03:43:21.665Z,613.32
2022-12-19T03:44:34.849Z,607.48
2022-12-19T03:45:56.599Z,598.11
2022-12-19T03:47:15.120Z,595.12
2022-12-19T03:48:30.970Z,586.71
2022-12-19T03:49:38.253Z,600.14
2022-12-19T03:51:00.375Z,614.12
2022-12-19T03:52:24.855Z,611.44
2022-12-19T03:53:50.275Z,608.94
2022-12-19T03:55:06.326Z,608.39
2022-12-19T03:56:25.883Z,614.90
2022-12-19T03:57:40.203Z,617.72
2022-12-19T03:58:56.247Z,617.82
2022-12-19T04:00:08.166Z,623.39
2022-12-19T04:01:22.650Z,621.66
2022-12-19T04:02:29.365Z,617.94
2022-12-19T04:03:37.020Z,619.58
2022-12-19T04:04:53.677Z,597.31
2022-12-19T04:06:02.127Z,601.77
2022-12-19T04:07:12.019Z,614.99
2022-12-19T04:08:17.922Z,601.03
2022-12-19T04:09:27.431Z,600.55
2022-12-19T04:10:36.153Z,604.29
2022-12-19T04:11:52.588Z,608.33
2022-12-19T04:13:05.309Z,601.81
2022-12-19T04:14:20.124Z,595.96
2022-12-19T04:15:45.255Z,611.09
2022-12-19T04:16:59.820Z,614.55
2022-12-19T04:18:12.845Z,621.51
2022-12-19T04:19:29.614Z,612.46
2022-12-19T04:20:48.645Z,599.98
2022-12-19T04:22:05.000Z,622.44
2022-12-19T04:23:24.535Z,614.40
2022-12-19T04:24:36.647Z,617.94
2022-12-19T04:25:52.281Z,599.40
2022-12-19T04:27:02.564Z,629.25
2022-12-19T04:28:16.779Z,620.15
2022-12-19T04:29:21.570Z,624.39
2022-12-19T04:30:27.458Z,608.91
2022-12-19T04:31:32.666Z,630.83
2022-12-19T04:32:43.143Z,625.81
2022-12-19T04:33:46.725Z,644.62
2022-12-19T04:34:52.616Z,667.40
2022-12-19T04:35:58.857Z,679.50
2022-12-19T04:37:06.754Z,671.91
2022-12-19T04:38:10.230Z,694.84
2022-12-19T04:39:16.271Z,718.19
2022-12-19T04:40:19.713Z,707.57
2022-12-19T04:41:25.613Z,708.84
2022-12-19T04:42:29.856Z,765.21
2022-12-19T04:43:36.063Z,760.12
2022-12-19T04:44:39.367Z,722.29
2022-12-19T04:45:45.552Z,691.88
2022-12-19T04:46:49.370Z,684.46
2022-12-19T04:47:56.067Z,701.89
2022-12-19T04:48:59.390Z,702.63
2022-12-19T04:50:05.557Z,706.39
2022-12-19T04:51:11.477Z,711.47
2022-12-19T04:52:17.402Z,708.85
2022-12-19T04:53:21.524Z,729.85
2022-12-19T04:54:27.380Z,739.35
2022-12-19T04:55:30.927Z,747.70
2022-12-19T04:56:36.829Z,764.85
2022-12-19T04:57:40.078Z,758.15
2022-12-19T04:58:46.805Z,746.45
2022-12-19T04:59:50.444Z,747.01
2022-12-19T05:00:56.310Z,817.51
2022-12-19T05:02:00.735Z,849.11
2022-12-19T05:03:06.881Z,843.99
2022-12-19T05:04:11.193Z,839.41
2022-12-19T05:05:18.412Z,839.17
2022-12-19T05:06:24.459Z,809.02
2022-12-19T05:07:30.479Z,783.33
2022-12-19T05:08:34.461Z,781.04
2022-12-19T05:09:41.327Z,785.59
2022-12-19T05:10:44.593Z,793.83
2022-12-19T05:11:50.987Z,792.49
2022-12-19T05:12:55.580Z,836.34
2022-12-19T05:14:02.406Z,836.29
2022-12-19T05:15:08.848Z,778.59
2022-12-19T05:16:16.386Z,751.17
2022-12-19T05:17:19.743Z,737.99
2022-12-19T05:18:25.815Z,718.39
2022-12-19T05:19:32.315Z,707.41
2022-12-19T05:20:38.117Z,711.75
2022-12-19T05:21:46.867Z,726.33
2022-12-19T05:22:50.186Z,740.59
2022-12-19T05:23:56.104Z,749.55
2022-12-19T05:24:59.389Z,727.18
2022-12-19T05:26:08.795Z,716.65
2022-12-19T05:27:12.098Z,708.54
2022-12-19T05:28:19.697Z,720.86
2022-12-19T05:29:23.337Z,714.96
2022-12-19T05:30:29.250Z,728.74
2022-12-19T05:31:33.507Z,703.52
2022-12-19T05:32:39.444Z,709.16
2022-12-19T05:33:43.947Z,715.82
2022-12-19T05:34:50.004Z,723.33
2022-12-19T05:35:53.318Z,733.92
2022-12-19T05:37:03.754Z,734.64
2022-12-19T05:38:07.396Z,752.48
2022-12-19T05:39:13.772Z,749.28
2022-12-19T05:40:17.220Z,762.13
2022-12-19T05:41:25.638Z,785.31
2022-12-19T05:42:29.736Z,767.83
2022-12-19T05:43:35.675Z,743.68
2022-12-19T05:44:38.977Z,742.75
2022-12-19T05:45:44.996Z,755.57
2022-12-19T05:46:48.468Z,745.36
2022-12-19T05:47:59.966Z,742.10
2022-12-19T05:49:04.721Z,748.29
2022-12-19T05:50:12.884Z,780.52
2022-12-19T05:51:17.020Z,770.68
2022-12-19T05:52:25.609Z,764.14
2022-12-19T05:53:30.524Z,755.48
2022-12-19T05:54:36.563Z,750.09
2022-12-19T05:55:39.918Z,759.87
2022-12-19T05:56:45.924Z,757.91
2022-12-19T05:57:49.462Z,725.38
2022-12-19T05:58:56.216Z,704.82
2022-12-19T06:00:00.017Z,725.32
2022-12-19T06:01:07.560Z,743.10
2022-12-19T06:02:12.759Z,738.28
2022-12-19T06:03:18.894Z,728.01
2022-12-19T06:04:23.197Z,737.89
2022-12-19T06:05:29.137Z,703.41
2022-12-19T06:06:34.996Z,737.82
2022-12-19T06:07:42.565Z,724.90
2022-12-19T06:08:49.404Z,700.15
2022-12-19T06:09:53.574Z,709.24
2022-12-19T06:11:02.797Z,723.08
2022-12-19T06:12:07.197Z,713.15
2022-12-19T06:13:13.394Z,682.74
2022-12-19T06:14:19.650Z,683.37
2022-12-19T06:15:23.771Z,689.69
2022-12-19T06:16:29.764Z,685.36
2022-12-19T06:17:33.219Z,669.90
2022-12-19T06:18:42.990Z,656.91
2022-12-19T06:19:48.270Z,676.88
2022-12-19T06:21:01.569Z,683.78
2022-12-19T06:22:05.018Z,665.62
2022-12-19T06:23:13.592Z,660.73
2022-12-19T06:24:17.575Z,684.36
2022-12-19T06:25:25.822Z,687.13
2022-12-19T06:26:31.472Z,700.74
2022-12-19T06:27:37.817Z,696.82
2022-12-19T06:28:41.167Z,681.75
2022-12-19T06:29:47.383Z,706.01
2022-12-19T06:30:50.941Z,675.23
2022-12-19T06:31:57.812Z,675.03
2022-12-19T06:33:01.349Z,708.41
2022-12-19T06:34:07.563Z,701.59
2022-12-19T06:35:11.561Z,712.46
2022-12-19T06:36:25.445Z,725.86
2022-12-19T06:37:29.689Z,714.90
2022-12-19T06:38:38.879Z,749.15
2022-12-19T06:39:42.230Z,756.77
2022-12-19T06:41:01.261Z,798.10
2022-12-19T06:42:20.308Z,835.01
2022-12-19T06:43:29.565Z,842.27
2022-12-19T06:44:34.114Z,807.68
2022-12-19T06:45:40.149Z,832.69
2022-12-19T06:46:44.743Z,816.91
2022-12-19T06:47:50.689Z,790.61
2022-12-19T06:48:58.864Z,762.88
2022-12-19T06:50:04.987Z,756.82
2022-12-19T06:51:08.783Z,766.29
2022-12-19T06:52:15.647Z,788.41
2022-12-19T06:53:21.812Z,800.40
2022-12-19T06:54:31.709Z,767.25
2022-12-19T06:55:37.559Z,776.11
2022-12-19T06:56:46.582Z,780.63
2022-12-19T06:57:49.901Z,754.78
2022-12-19T06:58:57.064Z,757.23
2022-12-19T07:00:03.897Z,756.83
2022-12-19T07:01:07.419Z,742.69
2022-12-19T07:02:31.550Z,773.72
2022-12-19T07:03:41.567Z,763.75
2022-12-19T07:04:54.652Z,796.04
2022-12-19T07:05:58.941Z,802.31
2022-12-19T07:07:05.167Z,775.51
2022-12-19T07:08:14.071Z,793.56
2022-12-19T07:09:17.829Z,771.98
2022-12-19T07:10:26.586Z,747.19
2022-12-19T07:11:30.782Z,739.90
2022-12-19T07:12:36.681Z,746.56
2022-12-19T07:13:40.110Z,740.57
2022-12-19T07:14:51.701Z,757.31
2022-12-19T07:16:07.291Z,768.30
2022-12-19T07:17:16.553Z,788.01
2022-12-19T07:18:20.045Z,780.23
2022-12-19T07:19:29.160Z,771.05
2022-12-19T07:20:44.877Z,756.51
2022-12-19T07:21:52.469Z,724.34
2022-12-19T07:22:56.918Z,724.15
2022-12-19T07:24:04.289Z,719.35
2022-12-19T07:25:10.054Z,712.02
2022-12-19T07:26:18.655Z,709.46
2022-12-19T07:27:28.563Z,721.15
2022-12-19T07:28:44.725Z,699.03
2022-12-19T07:29:50.688Z,703.42
2022-12-19T07:30:54.311Z,723.93
2022-12-19T07:32:00.398Z,723.73
2022-12-19T07:33:08.916Z,725.13
2022-12-19T07:34:19.259Z,739.04
2022-12-19T07:35:24.616Z,742.39
2022-12-19T07:36:30.884Z,757.02
2022-12-19T07:37:36.967Z,747.88
2022-12-19T07:38:40.294Z,761.27
2022-12-19T07:39:47.145Z,746.68
2022-12-19T07:40:53.311Z,778.10
2022-12-19T07:42:02.180Z,774.90
2022-12-19T07:43:17.596Z,783.36
2022-12-19T07:44:23.785Z,789.05
2022-12-19T07:45:31.081Z,758.14
2022-12-19T07:46:37.211Z,773.74
2022-12-19T07:47:40.589Z,764.64
2022-12-19T07:48:46.763Z,758.57
2022-12-19T07:49:50.272Z,783.73
2022-12-19T07:50:57.507Z,773.55
2022-12-19T07:52:03.931Z,772.42
2022-12-19T07:53:09.932Z,792.62
2022-12-19T07:54:18.045Z,786.64
2022-12-19T07:55:24.199Z,768.66
2022-12-19T07:56:28.987Z,776.43
2022-12-19T07:57:37.659Z,744.80
2022-12-19T07:58:41.116Z,730.64
2022-12-19T07:59:47.289Z,739.85
2022-12-19T08:00:58.770Z,717.62
2022-12-19T08:02:03.561Z,726.66
2022-12-19T08:03:09.723Z,727.12
2022-12-19T08:04:13.936Z,710.38
2022-12-19T08:05:20.470Z,710.92
2022-12-19T08:06:24.912Z,711.53
2022-12-19T08:07:31.727Z,705.92
2022-12-19T08:08:38.586Z,713.54
2022-12-19T08:09:44.496Z,711.08
2022-12-19T08:10:47.860Z,729.13
2022-12-19T08:11:53.688Z,721.38
2022-12-19T08:13:03.073Z,757.89
2022-12-19T08:14:06.542Z,788.74
2022-12-19T08:15:13.704Z,808.35
2022-12-19T08:16:19.810Z,809.19
2022-12-19T08:17:26.519Z,803.28
2022-12-19T08:18:33.494Z,779.37
2022-12-19T08:19:39.536Z,769.51
2022-12-19T08:20:49.523Z,761.31
2022-12-19T08:21:55.537Z,754.61
2022-12-19T08:23:01.574Z,753.04
2022-12-19T08:24:07.161Z,743.30
2022-12-19T08:25:13.661Z,733.47
2022-12-19T08:26:25.576Z,715.48
2022-12-19T08:27:31.828Z,684.75
2022-12-19T08:28:40.925Z,694.19
2022-12-19T08:29:48.158Z,685.06
2022-12-19T08:30:54.368Z,698.84
2022-12-19T08:32:00.453Z,705.87
2022-12-19T08:33:07.026Z,760.56
2022-12-19T08:34:10.630Z,793.68
2022-12-19T08:35:17.560Z,805.39
2022-12-19T08:36:21.998Z,815.39
2022-12-19T08:37:29.924Z,787.40
2022-12-19T08:38:33.261Z,753.45
2022-12-19T08:39:39.367Z,734.83
2022-12-19T08:40:47.661Z,715.40
2022-12-19T08:41:53.723Z,703.93
2022-12-19T08:42:58.282Z,713.82
2022-12-19T08:44:07.358Z,739.88
2022-12-19T08:45:13.914Z,732.41
2022-12-19T08:46:21.808Z,695.63
2022-12-19T08:47:27.967Z,692.16
2022-12-19T08:48:36.156Z,697.27
2022-12-19T08:49:42.424Z,738.10
2022-12-19T08:50:54.626Z,745.54
2022-12-19T08:52:01.581Z,720.98
2022-12-19T08:53:08.366Z,713.87
2022-12-19T08:54:15.548Z,724.27
2022-12-19T08:55:21.672Z,708.97
2022-12-19T08:56:27.773Z,705.07
2022-12-19T08:57:34.741Z,711.98
2022-12-19T08:58:40.712Z,713.85
2022-12-19T08:59:51.420Z,708.76
2022-12-19T09:01:05.263Z,726.35
2022-12-19T09:02:15.289Z,714.27
2022-12-19T09:03:22.710Z,726.69
2022-12-19T09:06:01.889Z,708.15
2022-12-19T09:06:07.095Z,710.14
2022-12-19T09:07:16.217Z,674.93
2022-12-19T09:08:23.168Z,661.34
2022-12-19T09:09:29.569Z,658.01
2022-12-19T09:10:38.649Z,672.02
2022-12-19T09:11:48.141Z,676.03
2022-12-19T09:12:58.039Z,700.56
2022-12-19T09:14:05.312Z,685.75
2022-12-19T09:15:14.385Z,691.07
2022-12-19T09:16:24.101Z,695.72
2022-12-19T09:17:31.422Z,693.92
2022-12-19T09:18:39.858Z,673.03
2022-12-19T09:19:48.535Z,698.71
2022-12-19T09:20:57.920Z,690.36
2022-12-19T09:22:04.088Z,686.08
2022-12-19T09:23:10.145Z,682.63
2022-12-19T09:24:16.120Z,703.71
2022-12-19T09:25:22.861Z,706.44
2022-12-19T09:26:33.683Z,703.97
2022-12-19T09:28:17.390Z,700.22
2022-12-19T09:29:21.109Z,700.95
2022-12-19T09:30:32.080Z,702.31
2022-12-19T09:31:40.552Z,697.22
2022-12-19T09:32:48.109Z,682.54
2022-12-19T09:33:55.026Z,691.94
2022-12-19T09:35:00.948Z,684.59
2022-12-19T09:36:11.849Z,680.04
2022-12-19T09:37:18.110Z,676.49
2022-12-19T09:38:23.549Z,696.91
2022-12-19T09:39:29.531Z,716.20
2022-12-19T09:40:58.219Z,734.08
2022-12-19T09:42:59.342Z,923.84
2022-12-19T09:44:26.377Z,929.47
2022-12-19T09:45:55.751Z,954.26
2022-12-19T09:47:06.446Z,882.10
2022-12-19T09:48:23.811Z,838.28
2022-12-19T09:49:41.647Z,801.10
2022-12-19T09:51:10.400Z,796.38
2022-12-19T09:52:25.005Z,815.92
2022-12-19T09:53:54.288Z,817.15
2022-12-19T09:55:16.822Z,845.18
2022-12-19T09:56:29.174Z,867.15
2022-12-19T09:57:47.448Z,914.50
2022-12-19T09:59:07.855Z,879.88
2022-12-19T10:00:21.674Z,864.97
2022-12-19T10:01:42.452Z,846.67
2022-12-19T10:02:59.578Z,809.52
2022-12-19T10:04:18.644Z,791.74
2022-12-19T10:06:24.927Z,802.10
2022-12-19T10:07:18.250Z,789.57
2022-12-19T10:08:47.691Z,782.99
2022-12-19T10:12:34.499Z,741.52
2022-12-19T10:12:45.179Z,752.46
2022-12-19T10:13:37.364Z,729.51
2022-12-19T10:15:03.398Z,720.16
2022-12-19T10:16:22.523Z,710.20
2022-12-19T10:18:01.130Z,688.42
2022-12-19T10:19:12.293Z,690.14
2022-12-19T10:20:32.785Z,682.39
2022-12-19T10:22:17.805Z,696.91
2022-12-19T10:24:19.035Z,671.56
2022-12-19T10:25:57.702Z,692.40
2022-12-19T10:27:16.346Z,661.90
2022-12-19T10:28:58.622Z,658.63
2022-12-19T10:30:17.309Z,649.63
2022-12-19T10:31:35.991Z,657.46
2022-12-19T10:33:07.085Z,652.77
2022-12-19T10:34:25.394Z,663.18
2022-12-19T10:35:37.723Z,662.30
2022-12-19T10:38:34.329Z,666.37
2022-12-19T10:40:00.650Z,710.16
2022-12-19T10:41:19.881Z,680.26
2022-12-19T10:42:39.577Z,704.35
2022-12-19T10:44:06.108Z,703.05
2022-12-19T10:45:19.689Z,676.93
2022-12-19T10:46:41.136Z,700.06
2022-12-19T10:47:50.887Z,714.99
2022-12-19T10:48:57.914Z,737.08
2022-12-19T10:50:09.222Z,788.97
2022-12-19T10:51:25.936Z,804.21
2022-12-19T10:52:57.002Z,790.23
2022-12-19T10:54:04.349Z,813.01
2022-12-19T10:55:40.782Z,766.75
2022-12-19T10:56:46.933Z,832.83
2022-12-19T10:57:50.200Z,825.43
2022-12-19T10:58:59.133Z,875.88
2022-12-19T11:00:20.385Z,880.61
2022-12-19T11:01:30.362Z,862.24
2022-12-19T11:02:51.966Z,856.16
2022-12-19T11:04:25.357Z,827.47
2022-12-19T11:05:47.366Z,810.76
2022-12-19T11:07:20.762Z,824.63
2022-12-19T11:08:31.053Z,827.28
2022-12-19T11:09:46.775Z,827.79
2022-12-19T11:13:15.490Z,800.75
2022-12-19T11:17:15.807Z,795.23
2022-12-19T11:18:47.125Z,793.43
2022-12-19T11:20:24.717Z,800.57
2022-12-19T11:27:46.450Z,790.89
2022-12-19T11:28:15.652Z,825.10
2022-12-19T11:29:25.414Z,786.64
2022-12-19T11:29:30.352Z,806.46
2022-12-19T11:29:37.047Z,789.99
2022-12-19T11:30:46.255Z,807.17
2022-12-19T11:30:47.658Z,791.60
2022-12-19T11:31:27.998Z,804.21
2022-12-19T11:31:46.584Z,798.64
2022-12-19T11:32:42.298Z,801.39
2022-12-19T11:33:50.764Z,802.21
2022-12-19T11:35:05.489Z,783.14
2022-12-19T11:36:31.856Z,799.44
2022-12-19T11:37:53.886Z,820.00
2022-12-19T11:39:03.408Z,806.09
2022-12-19T11:40:22.360Z,804.81
2022-12-19T11:41:43.943Z,813.96
2022-12-19T11:43:42.089Z,811.57
2022-12-19T11:44:39.310Z,815.08
2022-12-19T11:46:01.549Z,812.37
2022-12-19T11:47:27.899Z,820.40
2022-12-19T11:48:44.256Z,837.85
2022-12-19T11:50:06.302Z,866.61
2022-12-19T11:51:30.137Z,879.86
2022-12-19T11:53:03.964Z,887.65
2022-12-19T11:54:23.677Z,871.19
2022-12-19T11:55:45.168Z,857.59
2022-12-19T11:56:52.259Z,861.65
2022-12-19T11:57:58.917Z,844.29
2022-12-19T11:59:18.173Z,828.57
2022-12-19T12:00:28.840Z,845.30
2022-12-19T12:02:02.628Z,836.81
2022-12-19T12:03:49.534Z,843.90
2022-12-19T12:05:44.914Z,834.32
2022-12-19T12:06:57.785Z,853.48
2022-12-19T12:10:14.470Z,823.33
2022-12-19T12:13:43.574Z,855.11
2022-12-19T12:22:35.653Z,858.16
2022-12-19T12:22:42.147Z,847.26
2022-12-19T12:26:51.559Z,853.37
2022-12-19T12:30:46.866Z,860.17
2022-12-19T12:31:10.063Z,883.79
2022-12-19T12:31:14.691Z,876.29
2022-12-19T12:31:17.766Z,884.48
2022-12-19T12:31:44.385Z,871.83
2022-12-19T12:31:44.393Z,918.15
2022-12-19T12:32:03.005Z,920.50
2022-12-19T12:32:03.523Z,849.76
2022-12-19T12:35:13.681Z,901.93
2022-12-19T12:35:40.781Z,885.06
2022-12-19T12:39:07.212Z,920.44
2022-12-19T12:41:01.470Z,923.61
2022-12-19T12:42:33.796Z,959.86
2022-12-19T12:44:07.996Z,996.93
2022-12-19T12:45:26.213Z,1008.00
2022-12-19T12:46:42.236Z,1033.21
2022-12-19T12:47:55.050Z,1026.99
2022-12-19T12:49:04.823Z,1022.46
2022-12-19T12:50:20.236Z,1030.05
2022-12-19T12:51:30.100Z,1054.94
2022-12-19T12:52:46.161Z,1069.47
2022-12-19T12:54:07.881Z,1080.65
2022-12-19T12:55:27.660Z,1061.23
2022-12-19T12:56:35.626Z,1147.16
2022-12-19T12:57:42.268Z,1156.79
2022-12-19T12:59:24.140Z,1094.94
2022-12-19T13:00:33.997Z,1088.16
2022-12-19T13:01:41.424Z,1064.39
2022-12-19T13:02:53.620Z,1088.73
2022-12-19T13:04:05.168Z,1080.11
2022-12-19T13:05:39.947Z,1085.79
2022-12-19T13:07:30.334Z,1085.84
2022-12-19T13:08:50.640Z,1106.86
2022-12-19T13:10:20.055Z,1094.67
2022-12-19T13:11:56.302Z,1107.38
2022-12-19T13:13:14.972Z,1098.60
2022-12-19T13:14:51.827Z,1129.79
2022-12-19T13:15:57.874Z,1120.47
2022-12-19T13:17:05.745Z,1124.33
2022-12-19T13:18:42.353Z,1190.05
2022-12-19T13:19:56.891Z,1173.88
2022-12-19T13:21:06.851Z,1188.23
2022-12-19T13:22:42.539Z,1209.70
2022-12-19T13:23:52.550Z,1220.76
2022-12-19T13:25:01.539Z,1237.00
2022-12-19T13:26:26.208Z,1214.58
2022-12-19T13:27:42.825Z,1180.08
2022-12-19T13:28:47.103Z,1104.09
2022-12-19T13:30:08.214Z,1126.59
2022-12-19T13:31:26.473Z,1152.86
2022-12-19T13:32:58.078Z,1213.15
2022-12-19T13:34:22.377Z,1157.54
2022-12-19T13:37:42.407Z,1186.09
2022-12-19T13:39:59.352Z,1137.61
2022-12-19T13:39:59.625Z,1089.40
2022-12-19T13:40:37.375Z,1081.91
2022-12-19T13:41:58.430Z,1106.90
2022-12-19T13:43:33.635Z,1170.28
2022-12-19T13:44:45.404Z,1242.89
2022-12-19T13:45:57.367Z,1209.34
2022-12-19T13:47:03.562Z,1229.82
2022-12-19T13:48:23.898Z,1324.48
2022-12-19T13:49:36.592Z,1381.64
2022-12-19T13:50:43.588Z,1344.25
2022-12-19T13:51:57.225Z,1307.29
2022-12-19T13:53:03.777Z,1284.24
2022-12-19T13:54:29.168Z,1275.62
2022-12-19T13:55:43.032Z,1244.92
2022-12-19T13:56:49.839Z,1213.35
2022-12-19T13:58:00.604Z,1220.93
2022-12-19T13:59:09.025Z,1195.60
2022-12-19T14:00:24.559Z,1239.92
2022-12-19T14:01:32.194Z,1206.93
2022-12-19T14:02:51.850Z,1201.60
2022-12-19T14:04:02.649Z,1212.03
2022-12-19T14:06:14.308Z,1230.44
2022-12-19T14:07:04.301Z,1233.73
2022-12-19T14:08:18.218Z,1212.26
2022-12-19T14:11:28.720Z,1248.71
2022-12-19T14:11:33.971Z,1380.17
2022-12-19T14:13:43.271Z,1408.81
2022-12-19T14:14:33.416Z,1401.92
2022-12-19T14:15:42.571Z,1376.63
2022-12-19T14:16:49.953Z,1368.60
2022-12-19T14:17:56.073Z,1361.04
2022-12-19T14:19:30.189Z,1363.76
2022-12-19T14:22:11.380Z,1330.10
2022-12-19T14:22:20.713Z,1321.65
2022-12-19T14:23:42.889Z,1299.85
2022-12-19T14:25:52.368Z,1321.38
2022-12-19T14:28:23.444Z,1322.35
2022-12-19T14:28:24.713Z,1263.76
2022-12-19T14:30:28.908Z,1320.24
2022-12-19T14:31:20.592Z,1306.88
2022-12-19T14:33:44.566Z,1331.57
2022-12-19T14:34:27.088Z,1344.16
2022-12-19T14:36:06.398Z,1354.65
2022-12-19T14:37:03.533Z,1437.80
2022-12-19T14:39:20.703Z,1479.60
2022-12-19T14:39:44.129Z,1555.37
2022-12-19T14:41:07.387Z,1440.80
2022-12-19T14:43:39.465Z,1395.19
2022-12-19T14:52:11.526Z,1262.67
2022-12-19T14:52:50.878Z,1337.40
2022-12-19T14:53:52.730Z,1424.70
2022-12-19T14:54:01.422Z,1437.46
2022-12-19T14:54:23.043Z,1476.72
2022-12-19T14:54:25.523Z,1451.92
2022-12-19T14:54:37.733Z,1517.05
2022-12-19T14:56:16.054Z,1473.58
2022-12-19T14:57:03.914Z,1454.92
2022-12-19T14:58:53.315Z,1393.85
2022-12-19T14:59:46.362Z,1348.14
2022-12-19T15:01:09.286Z,1335.38
2022-12-19T15:02:30.642Z,1326.37
2022-12-19T15:04:50.555Z,1347.73
2022-12-19T15:05:24.276Z,1332.82
2022-12-19T15:07:07.863Z,1358.59
2022-12-19T15:08:04.457Z,1332.22
2022-12-19T15:10:58.387Z,1346.79
2022-12-19T15:11:05.268Z,1318.73
2022-12-19T15:14:48.564Z,1524.53
2022-12-19T15:14:56.319Z,1602.47
2022-12-19T15:15:46.303Z,1602.25
2022-12-19T15:17:06.162Z,1620.09
2022-12-19T15:18:28.897Z,1657.73
2022-12-19T15:19:35.375Z,1588.99
2022-12-19T15:20:42.131Z,1502.03
2022-12-19T15:21:49.508Z,1437.24
2022-12-19T15:22:55.582Z,1296.53
2022-12-19T15:24:02.526Z,1289.40
2022-12-19T15:25:17.516Z,1414.30
2022-12-19T15:26:49.133Z,1485.47
2022-12-19T15:27:58.330Z,1401.47